sensor_id;sensor_type;location;lat;lon;timestamp;P1;durP1;ratioP1;P2;durP2;ratioP2
37517;SDS011;23366;52.498;13.446;2022-08-21T00:00:21;8.80;;;4.88;;
37517;SDS011;23366;52.498;13.446;2022-08-21T00:02:51;10.77;;;5.13;;
37517;SDS011;23366;52.498;13.446;2022-08-21T00:05:26;8.38;;;4.50;;
37517;SDS011;23366;52.498;13.446;2022-08-21T00:07:52;8.88;;;4.22;;
37517;SDS011;23366;52.498;13.446;2022-08-21T00:10:18;7.07;;;4.25;;
37517;SDS011;23366;52.498;13.446;2022-08-21T00:12:44;7.13;;;4.38;;
37517;SDS011;23366;52.498;13.446;2022-08-21T00:15:12;9.23;;;4.63;;
37517;SDS011;23366;52.498;13.446;2022-08-21T00:17:44;10.90;;;4.38;;
37517;SDS011;23366;52.498;13.446;2022-08-21T00:20:11;8.10;;;4.22;;
37517;SDS011;23366;52.498;13.446;2022-08-21T00:22:38;6.70;;;3.83;;
37517;SDS011;23366;52.498;13.446;2022-08-21T00:25:04;7.65;;;4.10;;
37517;SDS011;23366;52.498;13.446;2022-08-21T00:27:31;7.47;;;4.65;;
37517;SDS011;23366;52.498;13.446;2022-08-21T00:29:57;8.25;;;4.40;;
37517;SDS011;23366;52.498;13.446;2022-08-21T00:32:24;11.18;;;4.85;;
37517;SDS011;23366;52.498;13.446;2022-08-21T00:34:50;12.95;;;5.70;;
37517;SDS011;23366;52.498;13.446;2022-08-21T00:37:16;6.95;;;5.22;;
37517;SDS011;23366;52.498;13.446;2022-08-21T00:39:41;9.85;;;4.53;;
37517;SDS011;23366;52.498;13.446;2022-08-21T00:42:08;7.78;;;5.10;;
37517;SDS011;23366;52.498;13.446;2022-08-21T00:44:34;7.05;;;4.97;;
37517;SDS011;23366;52.498;13.446;2022-08-21T00:47:00;8.65;;;4.75;;
37517;SDS011;23366;52.498;13.446;2022-08-21T00:49:26;8.77;;;4.43;;
37517;SDS011;23366;52.498;13.446;2022-08-21T00:51:53;8.95;;;5.93;;
37517;SDS011;23366;52.498;13.446;2022-08-21T00:54:24;6.85;;;4.80;;
37517;SDS011;23366;52.498;13.446;2022-08-21T00:57:11;10.32;;;4.32;;
37517;SDS011;23366;52.498;13.446;2022-08-21T00:59:41;5.97;;;3.80;;
37517;SDS011;23366;52.498;13.446;2022-08-21T01:02:11;6.30;;;4.28;;
37517;SDS011;23366;52.498;13.446;2022-08-21T01:04:37;6.35;;;3.92;;
37517;SDS011;23366;52.498;13.446;2022-08-21T01:07:03;9.10;;;4.10;;
37517;SDS011;23366;52.498;13.446;2022-08-21T01:09:30;6.40;;;4.53;;
37517;SDS011;23366;52.498;13.446;2022-08-21T01:11:55;5.72;;;3.75;;
37517;SDS011;23366;52.498;13.446;2022-08-21T01:14:21;6.50;;;4.35;;
37517;SDS011;23366;52.498;13.446;2022-08-21T01:16:48;5.30;;;4.03;;
37517;SDS011;23366;52.498;13.446;2022-08-21T01:19:16;9.88;;;3.63;;
37517;SDS011;23366;52.498;13.446;2022-08-21T01:21:44;9.10;;;4.38;;
37517;SDS011;23366;52.498;13.446;2022-08-21T01:24:10;8.30;;;4.60;;
37517;SDS011;23366;52.498;13.446;2022-08-21T01:26:37;8.40;;;4.85;;
37517;SDS011;23366;52.498;13.446;2022-08-21T01:31:32;7.95;;;4.07;;
37517;SDS011;23366;52.498;13.446;2022-08-21T01:33:58;6.03;;;3.95;;
37517;SDS011;23366;52.498;13.446;2022-08-21T01:36:24;4.35;;;3.38;;
37517;SDS011;23366;52.498;13.446;2022-08-21T01:38:50;5.70;;;3.70;;
37517;SDS011;23366;52.498;13.446;2022-08-21T01:41:16;8.30;;;3.80;;
37517;SDS011;23366;52.498;13.446;2022-08-21T01:43:42;5.50;;;3.60;;
37517;SDS011;23366;52.498;13.446;2022-08-21T01:46:09;6.30;;;3.08;;
37517;SDS011;23366;52.498;13.446;2022-08-21T01:48:36;8.20;;;5.10;;
37517;SDS011;23366;52.498;13.446;2022-08-21T01:51:03;3.67;;;2.80;;
37517;SDS011;23366;52.498;13.446;2022-08-21T01:53:29;9.00;;;4.63;;
37517;SDS011;23366;52.498;13.446;2022-08-21T01:55:55;7.18;;;3.78;;
37517;SDS011;23366;52.498;13.446;2022-08-21T01:58:21;7.88;;;3.25;;
37517;SDS011;23366;52.498;13.446;2022-08-21T02:00:46;7.70;;;3.78;;
37517;SDS011;23366;52.498;13.446;2022-08-21T02:03:12;4.45;;;3.30;;
37517;SDS011;23366;52.498;13.446;2022-08-21T02:05:37;5.47;;;3.42;;
37517;SDS011;23366;52.498;13.446;2022-08-21T02:08:03;8.10;;;4.03;;
37517;SDS011;23366;52.498;13.446;2022-08-21T02:10:31;9.95;;;3.30;;
37517;SDS011;23366;52.498;13.446;2022-08-21T02:12:58;10.68;;;4.25;;
37517;SDS011;23366;52.498;13.446;2022-08-21T02:15:25;4.82;;;3.38;;
37517;SDS011;23366;52.498;13.446;2022-08-21T02:17:52;11.27;;;2.50;;
37517;SDS011;23366;52.498;13.446;2022-08-21T02:20:25;6.85;;;3.25;;
37517;SDS011;23366;52.498;13.446;2022-08-21T02:22:53;5.72;;;3.15;;
37517;SDS011;23366;52.498;13.446;2022-08-21T02:25:20;6.07;;;2.28;;
37517;SDS011;23366;52.498;13.446;2022-08-21T02:27:47;4.53;;;3.00;;
37517;SDS011;23366;52.498;13.446;2022-08-21T02:30:14;3.67;;;2.97;;
37517;SDS011;23366;52.498;13.446;2022-08-21T02:32:42;9.20;;;3.47;;
37517;SDS011;23366;52.498;13.446;2022-08-21T02:35:08;5.20;;;2.72;;
37517;SDS011;23366;52.498;13.446;2022-08-21T02:37:42;7.47;;;3.40;;
37517;SDS011;23366;52.498;13.446;2022-08-21T02:40:10;5.40;;;2.78;;
37517;SDS011;23366;52.498;13.446;2022-08-21T02:42:36;4.40;;;2.38;;
37517;SDS011;23366;52.498;13.446;2022-08-21T02:45:02;6.65;;;3.10;;
37517;SDS011;23366;52.498;13.446;2022-08-21T02:47:28;3.33;;;2.83;;
37517;SDS011;23366;52.498;13.446;2022-08-21T02:49:53;5.90;;;3.00;;
37517;SDS011;23366;52.498;13.446;2022-08-21T02:52:19;8.02;;;2.83;;
37517;SDS011;23366;52.498;13.446;2022-08-21T02:54:46;9.10;;;3.55;;
37517;SDS011;23366;52.498;13.446;2022-08-21T02:57:12;8.32;;;3.20;;
37517;SDS011;23366;52.498;13.446;2022-08-21T02:59:38;4.38;;;2.75;;
37517;SDS011;23366;52.498;13.446;2022-08-21T03:02:04;5.00;;;2.40;;
37517;SDS011;23366;52.498;13.446;2022-08-21T03:04:29;4.88;;;2.33;;
37517;SDS011;23366;52.498;13.446;2022-08-21T03:06:55;6.25;;;2.50;;
37517;SDS011;23366;52.498;13.446;2022-08-21T03:09:20;4.15;;;2.85;;
37517;SDS011;23366;52.498;13.446;2022-08-21T03:11:46;3.78;;;2.30;;
37517;SDS011;23366;52.498;13.446;2022-08-21T03:14:12;6.82;;;2.75;;
37517;SDS011;23366;52.498;13.446;2022-08-21T03:16:37;7.85;;;2.67;;
37517;SDS011;23366;52.498;13.446;2022-08-21T03:19:03;12.13;;;2.70;;
37517;SDS011;23366;52.498;13.446;2022-08-21T03:21:28;5.82;;;2.47;;
37517;SDS011;23366;52.498;13.446;2022-08-21T03:23:55;4.70;;;2.13;;
37517;SDS011;23366;52.498;13.446;2022-08-21T03:26:20;8.32;;;3.08;;
37517;SDS011;23366;52.498;13.446;2022-08-21T03:28:46;2.90;;;2.30;;
37517;SDS011;23366;52.498;13.446;2022-08-21T03:31:12;8.93;;;2.30;;
37517;SDS011;23366;52.498;13.446;2022-08-21T03:33:37;7.78;;;2.97;;
37517;SDS011;23366;52.498;13.446;2022-08-21T03:36:04;4.75;;;2.13;;
37517;SDS011;23366;52.498;13.446;2022-08-21T03:38:32;2.72;;;2.10;;
37517;SDS011;23366;52.498;13.446;2022-08-21T03:41:00;6.53;;;2.20;;
37517;SDS011;23366;52.498;13.446;2022-08-21T03:43:26;3.70;;;2.13;;
37517;SDS011;23366;52.498;13.446;2022-08-21T03:45:52;5.45;;;2.50;;
37517;SDS011;23366;52.498;13.446;2022-08-21T03:48:18;11.00;;;3.78;;
37517;SDS011;23366;52.498;13.446;2022-08-21T03:50:44;7.93;;;3.08;;
37517;SDS011;23366;52.498;13.446;2022-08-21T03:53:12;9.48;;;2.63;;
37517;SDS011;23366;52.498;13.446;2022-08-21T03:55:38;6.85;;;2.67;;
37517;SDS011;23366;52.498;13.446;2022-08-21T03:58:04;8.80;;;2.40;;
37517;SDS011;23366;52.498;13.446;2022-08-21T04:00:30;4.75;;;2.25;;
37517;SDS011;23366;52.498;13.446;2022-08-21T04:02:56;6.28;;;2.25;;
37517;SDS011;23366;52.498;13.446;2022-08-21T04:05:21;5.97;;;2.28;;
37517;SDS011;23366;52.498;13.446;2022-08-21T04:08:00;5.18;;;2.42;;
37517;SDS011;23366;52.498;13.446;2022-08-21T04:10:28;5.10;;;2.22;;
37517;SDS011;23366;52.498;13.446;2022-08-21T04:12:56;6.75;;;2.15;;
37517;SDS011;23366;52.498;13.446;2022-08-21T04:15:24;4.93;;;2.17;;
37517;SDS011;23366;52.498;13.446;2022-08-21T04:17:50;4.05;;;2.03;;
37517;SDS011;23366;52.498;13.446;2022-08-21T04:20:19;5.38;;;1.90;;
37517;SDS011;23366;52.498;13.446;2022-08-21T04:22:46;4.33;;;1.90;;
37517;SDS011;23366;52.498;13.446;2022-08-21T04:25:13;4.82;;;1.75;;
37517;SDS011;23366;52.498;13.446;2022-08-21T04:27:40;5.28;;;2.30;;
37517;SDS011;23366;52.498;13.446;2022-08-21T04:30:07;4.40;;;1.85;;
37517;SDS011;23366;52.498;13.446;2022-08-21T04:32:33;3.50;;;1.25;;
37517;SDS011;23366;52.498;13.446;2022-08-21T04:35:04;4.38;;;1.77;;
37517;SDS011;23366;52.498;13.446;2022-08-21T04:37:31;7.30;;;1.65;;
37517;SDS011;23366;52.498;13.446;2022-08-21T04:39:57;3.22;;;1.83;;
37517;SDS011;23366;52.498;13.446;2022-08-21T04:42:24;10.57;;;2.15;;
37517;SDS011;23366;52.498;13.446;2022-08-21T04:44:50;4.20;;;1.63;;
37517;SDS011;23366;52.498;13.446;2022-08-21T04:47:16;4.63;;;1.50;;
37517;SDS011;23366;52.498;13.446;2022-08-21T04:49:42;5.88;;;1.73;;
37517;SDS011;23366;52.498;13.446;2022-08-21T04:52:10;4.03;;;1.63;;
37517;SDS011;23366;52.498;13.446;2022-08-21T04:54:38;5.80;;;2.00;;
37517;SDS011;23366;52.498;13.446;2022-08-21T04:57:05;2.78;;;1.80;;
37517;SDS011;23366;52.498;13.446;2022-08-21T04:59:39;7.95;;;2.22;;
37517;SDS011;23366;52.498;13.446;2022-08-21T05:02:09;3.15;;;1.90;;
37517;SDS011;23366;52.498;13.446;2022-08-21T05:04:36;7.05;;;2.67;;
37517;SDS011;23366;52.498;13.446;2022-08-21T05:07:05;9.77;;;2.00;;
37517;SDS011;23366;52.498;13.446;2022-08-21T05:09:35;5.90;;;1.67;;
37517;SDS011;23366;52.498;13.446;2022-08-21T05:12:03;4.03;;;1.55;;
37517;SDS011;23366;52.498;13.446;2022-08-21T05:14:29;6.32;;;1.58;;
37517;SDS011;23366;52.498;13.446;2022-08-21T05:16:54;8.55;;;2.28;;
37517;SDS011;23366;52.498;13.446;2022-08-21T05:19:20;5.97;;;1.75;;
37517;SDS011;23366;52.498;13.446;2022-08-21T05:21:46;6.30;;;1.65;;
37517;SDS011;23366;52.498;13.446;2022-08-21T05:24:12;4.65;;;1.67;;
37517;SDS011;23366;52.498;13.446;2022-08-21T05:26:38;6.45;;;2.15;;
37517;SDS011;23366;52.498;13.446;2022-08-21T05:29:04;6.28;;;1.90;;
37517;SDS011;23366;52.498;13.446;2022-08-21T05:31:31;3.70;;;1.50;;
37517;SDS011;23366;52.498;13.446;2022-08-21T05:33:56;3.08;;;2.03;;
37517;SDS011;23366;52.498;13.446;2022-08-21T05:36:22;6.20;;;2.10;;
37517;SDS011;23366;52.498;13.446;2022-08-21T05:38:48;6.97;;;2.55;;
37517;SDS011;23366;52.498;13.446;2022-08-21T05:41:14;3.92;;;2.05;;
37517;SDS011;23366;52.498;13.446;2022-08-21T05:43:39;9.35;;;2.30;;
37517;SDS011;23366;52.498;13.446;2022-08-21T05:46:05;6.35;;;1.90;;
37517;SDS011;23366;52.498;13.446;2022-08-21T05:48:32;5.13;;;1.85;;
37517;SDS011;23366;52.498;13.446;2022-08-21T05:51:11;5.95;;;2.25;;
37517;SDS011;23366;52.498;13.446;2022-08-21T05:53:38;8.60;;;2.42;;
37517;SDS011;23366;52.498;13.446;2022-08-21T05:56:04;5.95;;;2.67;;
37517;SDS011;23366;52.498;13.446;2022-08-21T05:58:32;10.70;;;2.42;;
37517;SDS011;23366;52.498;13.446;2022-08-21T06:00:58;15.20;;;3.72;;
37517;SDS011;23366;52.498;13.446;2022-08-21T06:03:31;6.75;;;2.60;;
37517;SDS011;23366;52.498;13.446;2022-08-21T06:05:59;4.80;;;2.00;;
37517;SDS011;23366;52.498;13.446;2022-08-21T06:08:25;5.90;;;2.42;;
37517;SDS011;23366;52.498;13.446;2022-08-21T06:10:52;6.05;;;3.05;;
37517;SDS011;23366;52.498;13.446;2022-08-21T06:13:19;6.70;;;2.20;;
37517;SDS011;23366;52.498;13.446;2022-08-21T06:15:45;3.17;;;1.83;;
37517;SDS011;23366;52.498;13.446;2022-08-21T06:18:11;7.82;;;1.70;;
37517;SDS011;23366;52.498;13.446;2022-08-21T06:20:37;5.13;;;1.92;;
37517;SDS011;23366;52.498;13.446;2022-08-21T06:23:03;4.28;;;1.27;;
37517;SDS011;23366;52.498;13.446;2022-08-21T06:25:29;4.35;;;1.73;;
37517;SDS011;23366;52.498;13.446;2022-08-21T06:28:05;3.65;;;1.35;;
37517;SDS011;23366;52.498;13.446;2022-08-21T06:30:33;6.80;;;1.80;;
37517;SDS011;23366;52.498;13.446;2022-08-21T06:32:59;5.38;;;1.55;;
37517;SDS011;23366;52.498;13.446;2022-08-21T06:35:25;3.50;;;1.67;;
37517;SDS011;23366;52.498;13.446;2022-08-21T06:37:51;5.97;;;1.33;;
37517;SDS011;23366;52.498;13.446;2022-08-21T06:40:17;6.68;;;1.63;;
37517;SDS011;23366;52.498;13.446;2022-08-21T06:42:42;5.40;;;1.40;;
37517;SDS011;23366;52.498;13.446;2022-08-21T06:45:08;5.82;;;1.73;;
37517;SDS011;23366;52.498;13.446;2022-08-21T06:47:34;8.27;;;1.20;;
37517;SDS011;23366;52.498;13.446;2022-08-21T06:50:00;6.55;;;1.65;;
37517;SDS011;23366;52.498;13.446;2022-08-21T06:52:26;6.22;;;2.10;;
37517;SDS011;23366;52.498;13.446;2022-08-21T06:54:52;6.10;;;1.50;;
37517;SDS011;23366;52.498;13.446;2022-08-21T06:57:17;5.53;;;2.00;;
37517;SDS011;23366;52.498;13.446;2022-08-21T06:59:43;3.15;;;1.45;;
37517;SDS011;23366;52.498;13.446;2022-08-21T07:02:10;4.30;;;1.40;;
37517;SDS011;23366;52.498;13.446;2022-08-21T07:04:36;14.10;;;2.95;;
37517;SDS011;23366;52.498;13.446;2022-08-21T07:07:01;9.13;;;2.22;;
37517;SDS011;23366;52.498;13.446;2022-08-21T07:09:27;5.60;;;1.77;;
37517;SDS011;23366;52.498;13.446;2022-08-21T07:11:53;6.07;;;1.90;;
37517;SDS011;23366;52.498;13.446;2022-08-21T07:14:22;7.22;;;1.77;;
37517;SDS011;23366;52.498;13.446;2022-08-21T07:16:48;3.30;;;1.50;;
37517;SDS011;23366;52.498;13.446;2022-08-21T07:19:14;5.90;;;1.63;;
37517;SDS011;23366;52.498;13.446;2022-08-21T07:21:39;5.30;;;1.83;;
37517;SDS011;23366;52.498;13.446;2022-08-21T07:24:05;4.70;;;1.40;;
37517;SDS011;23366;52.498;13.446;2022-08-21T07:26:31;3.20;;;1.20;;
37517;SDS011;23366;52.498;13.446;2022-08-21T07:28:59;1.73;;;0.88;;
37517;SDS011;23366;52.498;13.446;2022-08-21T07:31:25;4.20;;;1.20;;
37517;SDS011;23366;52.498;13.446;2022-08-21T07:33:51;3.55;;;1.23;;
37517;SDS011;23366;52.498;13.446;2022-08-21T07:36:17;6.65;;;1.65;;
37517;SDS011;23366;52.498;13.446;2022-08-21T07:38:43;4.25;;;0.90;;
37517;SDS011;23366;52.498;13.446;2022-08-21T07:41:13;7.70;;;1.85;;
37517;SDS011;23366;52.498;13.446;2022-08-21T07:43:51;4.07;;;1.45;;
37517;SDS011;23366;52.498;13.446;2022-08-21T07:46:17;4.78;;;1.58;;
37517;SDS011;23366;52.498;13.446;2022-08-21T07:48:43;6.95;;;2.28;;
37517;SDS011;23366;52.498;13.446;2022-08-21T07:51:10;5.00;;;1.38;;
37517;SDS011;23366;52.498;13.446;2022-08-21T07:53:38;1.98;;;0.82;;
37517;SDS011;23366;52.498;13.446;2022-08-21T07:56:04;2.22;;;1.17;;
37517;SDS011;23366;52.498;13.446;2022-08-21T07:58:32;3.05;;;0.80;;
37517;SDS011;23366;52.498;13.446;2022-08-21T08:00:57;2.88;;;1.33;;
37517;SDS011;23366;52.498;13.446;2022-08-21T08:03:23;2.80;;;1.05;;
37517;SDS011;23366;52.498;13.446;2022-08-21T08:05:50;1.58;;;0.73;;
37517;SDS011;23366;52.498;13.446;2022-08-21T08:08:15;1.98;;;0.60;;
37517;SDS011;23366;52.498;13.446;2022-08-21T08:10:42;3.63;;;0.95;;
37517;SDS011;23366;52.498;13.446;2022-08-21T08:13:08;2.15;;;1.27;;
37517;SDS011;23366;52.498;13.446;2022-08-21T08:15:34;6.53;;;1.20;;
37517;SDS011;23366;52.498;13.446;2022-08-21T08:18:03;1.75;;;0.80;;
37517;SDS011;23366;52.498;13.446;2022-08-21T08:20:29;3.65;;;0.82;;
37517;SDS011;23366;52.498;13.446;2022-08-21T08:23:12;3.97;;;0.80;;
37517;SDS011;23366;52.498;13.446;2022-08-21T08:25:39;2.35;;;0.85;;
37517;SDS011;23366;52.498;13.446;2022-08-21T08:28:05;3.60;;;0.95;;
37517;SDS011;23366;52.498;13.446;2022-08-21T08:30:31;3.78;;;0.80;;
37517;SDS011;23366;52.498;13.446;2022-08-21T08:32:56;2.13;;;0.90;;
37517;SDS011;23366;52.498;13.446;2022-08-21T08:35:23;3.20;;;1.13;;
37517;SDS011;23366;52.498;13.446;2022-08-21T08:37:49;2.38;;;1.35;;
37517;SDS011;23366;52.498;13.446;2022-08-21T08:41:00;4.97;;;1.38;;
37517;SDS011;23366;52.498;13.446;2022-08-21T08:43:11;6.22;;;0.98;;
37517;SDS011;23366;52.498;13.446;2022-08-21T08:45:39;5.30;;;1.17;;
37517;SDS011;23366;52.498;13.446;2022-08-21T08:48:09;1.88;;;0.80;;
37517;SDS011;23366;52.498;13.446;2022-08-21T08:50:47;2.78;;;1.33;;
37517;SDS011;23366;52.498;13.446;2022-08-21T08:53:19;3.50;;;1.35;;
37517;SDS011;23366;52.498;13.446;2022-08-21T08:55:50;3.25;;;0.90;;
37517;SDS011;23366;52.498;13.446;2022-08-21T08:58:30;1.90;;;1.17;;
37517;SDS011;23366;52.498;13.446;2022-08-21T09:00:57;5.55;;;1.52;;
37517;SDS011;23366;52.498;13.446;2022-08-21T09:03:24;5.40;;;1.73;;
37517;SDS011;23366;52.498;13.446;2022-08-21T09:06:03;2.33;;;0.90;;
37517;SDS011;23366;52.498;13.446;2022-08-21T09:11:45;2.85;;;1.17;;
37517;SDS011;23366;52.498;13.446;2022-08-21T09:14:23;3.17;;;1.75;;
37517;SDS011;23366;52.498;13.446;2022-08-21T09:25:55;2.63;;;1.25;;
37517;SDS011;23366;52.498;13.446;2022-08-21T09:28:35;4.63;;;1.33;;
37517;SDS011;23366;52.498;13.446;2022-08-21T09:31:13;4.40;;;1.25;;
37517;SDS011;23366;52.498;13.446;2022-08-21T09:33:40;6.47;;;2.22;;
37517;SDS011;23366;52.498;13.446;2022-08-21T09:36:06;2.53;;;1.50;;
37517;SDS011;23366;52.498;13.446;2022-08-21T09:38:32;3.38;;;1.55;;
37517;SDS011;23366;52.498;13.446;2022-08-21T09:41:06;3.35;;;1.52;;
37517;SDS011;23366;52.498;13.446;2022-08-21T09:43:34;5.40;;;1.27;;
37517;SDS011;23366;52.498;13.446;2022-08-21T09:46:10;4.03;;;1.20;;
37517;SDS011;23366;52.498;13.446;2022-08-21T09:48:48;7.25;;;1.23;;
37517;SDS011;23366;52.498;13.446;2022-08-21T09:51:21;4.10;;;1.55;;
37517;SDS011;23366;52.498;13.446;2022-08-21T09:56:40;3.00;;;0.70;;
37517;SDS011;23366;52.498;13.446;2022-08-21T09:59:43;4.93;;;1.40;;
37517;SDS011;23366;52.498;13.446;2022-08-21T10:04:56;4.25;;;1.40;;
37517;SDS011;23366;52.498;13.446;2022-08-21T10:07:28;5.47;;;2.10;;
37517;SDS011;23366;52.498;13.446;2022-08-21T10:10:15;2.88;;;1.48;;
37517;SDS011;23366;52.498;13.446;2022-08-21T10:12:53;3.70;;;1.20;;
37517;SDS011;23366;52.498;13.446;2022-08-21T10:18:26;5.93;;;1.23;;
37517;SDS011;23366;52.498;13.446;2022-08-21T10:26:52;4.47;;;1.50;;
37517;SDS011;23366;52.498;13.446;2022-08-21T10:29:29;8.07;;;1.67;;
37517;SDS011;23366;52.498;13.446;2022-08-21T10:40:34;3.72;;;1.92;;
37517;SDS011;23366;52.498;13.446;2022-08-21T10:46:07;3.58;;;1.40;;
37517;SDS011;23366;52.498;13.446;2022-08-21T10:48:38;1.95;;;1.05;;
37517;SDS011;23366;52.498;13.446;2022-08-21T10:58:26;5.93;;;1.23;;
37517;SDS011;23366;52.498;13.446;2022-08-21T11:00:21;1.83;;;1.08;;
37517;SDS011;23366;52.498;13.446;2022-08-21T11:05:40;2.30;;;0.70;;
37517;SDS011;23366;52.498;13.446;2022-08-21T11:08:28;1.92;;;0.77;;
37517;SDS011;23366;52.498;13.446;2022-08-21T11:11:05;7.63;;;1.58;;
37517;SDS011;23366;52.498;13.446;2022-08-21T11:18:55;2.65;;;1.10;;
37517;SDS011;23366;52.498;13.446;2022-08-21T11:27:12;4.45;;;1.17;;
37517;SDS011;23366;52.498;13.446;2022-08-21T11:29:46;6.70;;;1.20;;
37517;SDS011;23366;52.498;13.446;2022-08-21T11:34:58;4.90;;;1.15;;
37517;SDS011;23366;52.498;13.446;2022-08-21T11:43:41;3.25;;;0.90;;
37517;SDS011;23366;52.498;13.446;2022-08-21T11:46:14;2.40;;;0.85;;
37517;SDS011;23366;52.498;13.446;2022-08-21T11:54:30;1.50;;;0.90;;
37517;SDS011;23366;52.498;13.446;2022-08-21T11:57:02;3.40;;;1.08;;
37517;SDS011;23366;52.498;13.446;2022-08-21T11:59:40;2.80;;;0.73;;
37517;SDS011;23366;52.498;13.446;2022-08-21T12:02:17;2.00;;;0.70;;
37517;SDS011;23366;52.498;13.446;2022-08-21T12:05:24;2.90;;;0.80;;
37517;SDS011;23366;52.498;13.446;2022-08-21T12:16:38;2.30;;;1.17;;
37517;SDS011;23366;52.498;13.446;2022-08-21T12:19:08;6.32;;;1.88;;
37517;SDS011;23366;52.498;13.446;2022-08-21T12:21:51;2.22;;;1.30;;
37517;SDS011;23366;52.498;13.446;2022-08-21T12:27:21;1.85;;;1.10;;
37517;SDS011;23366;52.498;13.446;2022-08-21T12:30:00;4.40;;;1.20;;
37517;SDS011;23366;52.498;13.446;2022-08-21T12:33:18;2.40;;;0.80;;
37517;SDS011;23366;52.498;13.446;2022-08-21T12:35:24;4.57;;;1.85;;
37517;SDS011;23366;52.498;13.446;2022-08-21T12:40:26;1.80;;;0.80;;
37517;SDS011;23366;52.498;13.446;2022-08-21T12:42:57;2.05;;;0.68;;
37517;SDS011;23366;52.498;13.446;2022-08-21T12:45:37;0.90;;;0.55;;
37517;SDS011;23366;52.498;13.446;2022-08-21T12:48:12;2.90;;;1.20;;
37517;SDS011;23366;52.498;13.446;2022-08-21T12:56:36;3.30;;;0.90;;
37517;SDS011;23366;52.498;13.446;2022-08-21T12:59:07;4.13;;;0.98;;
37517;SDS011;23366;52.498;13.446;2022-08-21T13:01:47;2.42;;;1.02;;
37517;SDS011;23366;52.498;13.446;2022-08-21T13:04:18;2.63;;;1.10;;
37517;SDS011;23366;52.498;13.446;2022-08-21T13:06:47;2.45;;;1.38;;
37517;SDS011;23366;52.498;13.446;2022-08-21T13:09:16;4.00;;;1.60;;
37517;SDS011;23366;52.498;13.446;2022-08-21T13:11:49;4.93;;;0.95;;
37517;SDS011;23366;52.498;13.446;2022-08-21T13:14:30;4.55;;;1.40;;
37517;SDS011;23366;52.498;13.446;2022-08-21T13:17:06;2.35;;;0.93;;
37517;SDS011;23366;52.498;13.446;2022-08-21T13:19:32;3.13;;;1.60;;
37517;SDS011;23366;52.498;13.446;2022-08-21T13:21:59;3.08;;;1.80;;
37517;SDS011;23366;52.498;13.446;2022-08-21T13:24:32;2.38;;;1.30;;
37517;SDS011;23366;52.498;13.446;2022-08-21T13:26:59;5.40;;;1.95;;
37517;SDS011;23366;52.498;13.446;2022-08-21T13:29:29;2.03;;;1.38;;
37517;SDS011;23366;52.498;13.446;2022-08-21T13:32:00;4.45;;;1.92;;
37517;SDS011;23366;52.498;13.446;2022-08-21T13:34:32;3.60;;;1.77;;
37517;SDS011;23366;52.498;13.446;2022-08-21T13:37:02;3.00;;;1.33;;
37517;SDS011;23366;52.498;13.446;2022-08-21T13:39:29;2.33;;;0.90;;
37517;SDS011;23366;52.498;13.446;2022-08-21T13:41:57;2.97;;;0.90;;
37517;SDS011;23366;52.498;13.446;2022-08-21T13:44:33;4.15;;;1.25;;
37517;SDS011;23366;52.498;13.446;2022-08-21T13:47:09;1.40;;;0.80;;
37517;SDS011;23366;52.498;13.446;2022-08-21T13:49:45;2.35;;;0.70;;
37517;SDS011;23366;52.498;13.446;2022-08-21T13:52:16;2.75;;;0.77;;
37517;SDS011;23366;52.498;13.446;2022-08-21T13:54:58;3.10;;;0.90;;
37517;SDS011;23366;52.498;13.446;2022-08-21T13:57:34;3.20;;;1.30;;
37517;SDS011;23366;52.498;13.446;2022-08-21T14:00:10;3.50;;;1.55;;
37517;SDS011;23366;52.498;13.446;2022-08-21T14:02:40;2.35;;;1.00;;
37517;SDS011;23366;52.498;13.446;2022-08-21T14:05:14;8.80;;;2.08;;
37517;SDS011;23366;52.498;13.446;2022-08-21T14:07:44;5.07;;;1.67;;
37517;SDS011;23366;52.498;13.446;2022-08-21T14:10:15;1.90;;;1.23;;
37517;SDS011;23366;52.498;13.446;2022-08-21T14:15:14;3.80;;;1.58;;
37517;SDS011;23366;52.498;13.446;2022-08-21T14:17:42;4.28;;;1.33;;
37517;SDS011;23366;52.498;13.446;2022-08-21T14:20:10;3.28;;;1.30;;
37517;SDS011;23366;52.498;13.446;2022-08-21T14:22:41;3.17;;;1.38;;
37517;SDS011;23366;52.498;13.446;2022-08-21T14:25:14;4.50;;;1.13;;
37517;SDS011;23366;52.498;13.446;2022-08-21T14:27:57;4.55;;;1.60;;
37517;SDS011;23366;52.498;13.446;2022-08-21T14:30:30;4.85;;;1.42;;
37517;SDS011;23366;52.498;13.446;2022-08-21T14:32:58;7.03;;;2.77;;
37517;SDS011;23366;52.498;13.446;2022-08-21T14:35:24;3.05;;;1.38;;
37517;SDS011;23366;52.498;13.446;2022-08-21T14:37:50;2.97;;;1.38;;
37517;SDS011;23366;52.498;13.446;2022-08-21T14:40:17;4.30;;;1.75;;
37517;SDS011;23366;52.498;13.446;2022-08-21T14:42:44;6.35;;;2.83;;
37517;SDS011;23366;52.498;13.446;2022-08-21T14:47:53;4.63;;;2.53;;
37517;SDS011;23366;52.498;13.446;2022-08-21T14:50:19;8.85;;;1.88;;
37517;SDS011;23366;52.498;13.446;2022-08-21T14:52:45;4.18;;;1.85;;
37517;SDS011;23366;52.498;13.446;2022-08-21T14:55:12;3.05;;;1.73;;
37517;SDS011;23366;52.498;13.446;2022-08-21T14:57:44;4.90;;;1.60;;
37517;SDS011;23366;52.498;13.446;2022-08-21T15:00:16;3.72;;;1.92;;
37517;SDS011;23366;52.498;13.446;2022-08-21T15:02:44;6.82;;;3.97;;
37517;SDS011;23366;52.498;13.446;2022-08-21T15:05:10;13.20;;;9.82;;
37517;SDS011;23366;52.498;13.446;2022-08-21T15:07:36;10.43;;;5.85;;
37517;SDS011;23366;52.498;13.446;2022-08-21T15:10:03;8.10;;;4.18;;
37517;SDS011;23366;52.498;13.446;2022-08-21T15:12:29;7.95;;;3.67;;
37517;SDS011;23366;52.498;13.446;2022-08-21T15:14:55;5.80;;;2.90;;
37517;SDS011;23366;52.498;13.446;2022-08-21T15:17:21;7.35;;;2.92;;
37517;SDS011;23366;52.498;13.446;2022-08-21T15:19:46;8.40;;;4.18;;
37517;SDS011;23366;52.498;13.446;2022-08-21T15:22:12;9.55;;;4.32;;
37517;SDS011;23366;52.498;13.446;2022-08-21T15:24:38;9.85;;;3.80;;
37517;SDS011;23366;52.498;13.446;2022-08-21T15:27:04;7.50;;;3.17;;
37517;SDS011;23366;52.498;13.446;2022-08-21T15:29:32;6.47;;;2.47;;
37517;SDS011;23366;52.498;13.446;2022-08-21T15:32:00;5.60;;;2.10;;
37517;SDS011;23366;52.498;13.446;2022-08-21T15:34:39;7.55;;;1.77;;
37517;SDS011;23366;52.498;13.446;2022-08-21T15:37:05;5.40;;;2.13;;
37517;SDS011;23366;52.498;13.446;2022-08-21T15:39:32;8.50;;;3.35;;
37517;SDS011;23366;52.498;13.446;2022-08-21T15:41:59;21.00;;;9.80;;
37517;SDS011;23366;52.498;13.446;2022-08-21T15:44:25;8.65;;;4.43;;
37517;SDS011;23366;52.498;13.446;2022-08-21T15:46:52;6.38;;;3.10;;
37517;SDS011;23366;52.498;13.446;2022-08-21T15:49:19;6.38;;;2.10;;
37517;SDS011;23366;52.498;13.446;2022-08-21T15:51:44;4.35;;;1.90;;
37517;SDS011;23366;52.498;13.446;2022-08-21T15:54:10;3.13;;;1.63;;
37517;SDS011;23366;52.498;13.446;2022-08-21T15:56:37;5.22;;;1.65;;
37517;SDS011;23366;52.498;13.446;2022-08-21T15:59:06;5.72;;;2.05;;
37517;SDS011;23366;52.498;13.446;2022-08-21T16:01:37;5.00;;;2.75;;
37517;SDS011;23366;52.498;13.446;2022-08-21T16:04:03;5.65;;;2.83;;
37517;SDS011;23366;52.498;13.446;2022-08-21T16:06:29;7.95;;;3.67;;
37517;SDS011;23366;52.498;13.446;2022-08-21T16:08:55;2.00;;;1.17;;
37517;SDS011;23366;52.498;13.446;2022-08-21T16:11:20;4.25;;;1.50;;
37517;SDS011;23366;52.498;13.446;2022-08-21T16:13:46;4.25;;;1.45;;
37517;SDS011;23366;52.498;13.446;2022-08-21T16:16:18;7.90;;;2.67;;
37517;SDS011;23366;52.498;13.446;2022-08-21T16:18:45;7.53;;;2.88;;
37517;SDS011;23366;52.498;13.446;2022-08-21T16:21:11;9.88;;;3.78;;
37517;SDS011;23366;52.498;13.446;2022-08-21T16:23:37;5.78;;;2.70;;